Niles, MI (49120)

1:10 PM EST on March 06, 2015 (GMT -0500)
Milton Township | Change Station
CLOSE
Current Station
Personal Weather Station
Location: Niles, MI
Elevation: 846 ft
Nearby Weather Stations

Elev 846 ft 41.77 °N, 86.17 °W | Updated 39 seconds ago

Clear
Clear
20.2 °F
Feels Like 20 °F
N
3.0
Wind Variable Wind from SE
Gusts 0.0 mph

Today
High -- | Low -- °F
--% Chance of Precip.
Yesterday
High -- | Low -- °F
Precip. -- in
7:12 AM 6:41 PM
Full, 99% visible
Pressure 30.43 in
Visibility 10.0 miles
Clouds Clear
Windchill 20 °F
Dew Point 4 °F
Humidity 48%
Rainfall in
Snow Depth Not available.
UV 2.8 out of 12
Pollen .50 out of 12
Air Quality Not available.
Flu Activity Not available.
METAR KSBN 061754Z 20011KT 10SM CLR M07/M15 A3038 RMK AO2 SLP305 T10721150 11072 21172 58028

More Conditions Fewer Conditions

Pressure 30.43 in
Visibility 10.0 miles
Clouds Clear
Windchill 20 °F
Dew Point 4 °F
Humidity 48%
Rainfall in
Snow Depth Not available.
UV 2.8 out of 12
Pollen .50 out of 12
Air Quality Not available.
Flu Activity Not available.
METAR KSBN 061754Z 20011KT 10SM CLR M07/M15 A3038 RMK AO2 SLP305 T10721150 11072 21172 58028

More Conditions Fewer Conditions

10-Day Weather Forecast

Almanac

Astronomy

Mar. 06, 2015 Rise Set
Actual Time
Civil Twilight
Nautical Twilight
Astronomical Twilight
Moon
Length of Visible Light
Length of Day
Tomorrow will be .
, % of the Moon is Illuminated

Today's Extremes

State Highs State Lows

Community

WunderPhotos

Upload Photos

1,803,357 photos uploaded!

WunderBlogs® & News

Nearby

Air Quality

  Air Quality AQ Index Pollutant
Not available.

Snow Depth

Station Depth Elevation

Earthquake Activity

City Distance Mag. Time & Date
Minimum magnitude displayed is 2.5.

Coastal Water Temperatures

Place Temperature

Nearby Weather Stations